Deauville, France

2:58 AM CET on December 26, 2014 (GMT +0100)
Saint Gatien | Change Station
CLOSE
Current Station
Airport
Location: Deauville,
Elevation: 479 ft
Nearby Weather Stations

Elev 479 ft 49.36 °N, 0.17 °E | Updated 28 minutes ago

Mostly Cloudy
Mostly Cloudy
39 °F
Feels Like 39 °F
N
2
Wind Variable Wind from WSW

Today
High -- | Low -- °F
--% Chance of Precip.
Yesterday
High -- | Low -- °F
Precip. -- in
8:54 AM 5:05 PM
Waxing Crescent, 21% visible
Pressure 30.51 in
Visibility 6.2 miles
Clouds Scattered Clouds 3500 ft
Mostly Cloudy 5400 ft
Dew Point 37 °F
Humidity 93%
Rainfall 0.00 in
Snow Depth Not available.
UV 0 out of 12
Pollen Not available.
Air Quality Not available.
Flu Activity Not available.
METAR LFRG 260130Z AUTO 25002KT 9999 SCT035 BKN054 04/03 Q1033

More Conditions Fewer Conditions

Pressure 30.51 in
Visibility 6.2 miles
Clouds Scattered Clouds 3500 ft
Mostly Cloudy 5400 ft
Dew Point 37 °F
Humidity 93%
Rainfall 0.00 in
Snow Depth Not available.
UV 0 out of 12
Pollen Not available.
Air Quality Not available.
Flu Activity Not available.
METAR LFRG 260130Z AUTO 25002KT 9999 SCT035 BKN054 04/03 Q1033

More Conditions Fewer Conditions

10-Day Weather Forecast

Almanac

Astronomy

Dec. 26, 2014 Rise Set
Actual Time
Civil Twilight
Nautical Twilight
Astronomical Twilight
Moon
Length of Visible Light
Length of Day
Tomorrow will be .
, % of the Moon is Illuminated

Today's Extremes

Country Highs Country Lows

Community

WunderPhotos

Upload Photos

1,780,495 photos uploaded!

WunderBlogs® & News

Nearby

Air Quality

  Air Quality AQ Index Pollutant
Not available.

Snow Depth

Station Depth Elevation

Earthquake Activity

City Distance Mag. Time & Date
Minimum magnitude displayed is 2.5.

Coastal Water Temperatures

Place Temperature

Nearby Weather Stations